createdAt,value
2022-10-08T00:01:46.313Z,22.32
2022-10-08T00:04:14.791Z,22.32
2022-10-08T00:06:43.273Z,22.32
2022-10-08T00:09:11.671Z,22.31
2022-10-08T00:11:41.245Z,22.31
2022-10-08T00:14:11.025Z,22.31
2022-10-08T00:16:41.231Z,22.30
2022-10-08T00:19:12.770Z,22.30
2022-10-08T00:21:43.865Z,22.30
2022-10-08T00:24:14.980Z,22.30
2022-10-08T00:26:44.647Z,22.30
2022-10-08T00:29:17.019Z,22.29
2022-10-08T00:31:47.713Z,22.30
2022-10-08T00:34:18.025Z,22.30
2022-10-08T00:36:47.368Z,22.29
2022-10-08T00:39:18.213Z,22.29
2022-10-08T00:41:48.950Z,22.29
2022-10-08T00:44:53.584Z,22.29
2022-10-08T00:47:25.575Z,22.29
2022-10-08T00:49:56.444Z,22.30
2022-10-08T00:52:27.592Z,22.29
2022-10-08T00:54:57.250Z,22.29
2022-10-08T00:57:28.494Z,22.29
2022-10-08T00:59:58.542Z,22.26
2022-10-08T01:02:27.059Z,22.27
2022-10-08T01:04:55.601Z,22.27
2022-10-08T01:07:29.872Z,22.27
2022-10-08T01:10:02.669Z,22.28
2022-10-08T01:12:41.534Z,22.27
2022-10-08T01:15:23.970Z,22.26
2022-10-08T01:17:59.865Z,22.26
2022-10-08T01:20:45.118Z,22.26
2022-10-08T01:23:37.178Z,22.26
2022-10-08T01:26:32.826Z,22.26
2022-10-08T01:29:06.656Z,22.26
2022-10-08T01:31:38.467Z,22.26
2022-10-08T01:34:10.130Z,22.26
2022-10-08T01:36:44.220Z,22.25
2022-10-08T01:39:15.104Z,22.26
2022-10-08T01:41:49.332Z,22.26
2022-10-08T01:44:24.377Z,22.26
2022-10-08T01:46:58.656Z,22.25
2022-10-08T01:49:31.443Z,22.26
2022-10-08T01:52:05.739Z,22.25
2022-10-08T01:54:35.261Z,22.25
2022-10-08T01:57:06.141Z,22.24
2022-10-08T01:59:42.319Z,22.23
2022-10-08T02:02:17.468Z,22.25
2022-10-08T02:04:46.280Z,22.25
2022-10-08T02:07:18.179Z,22.25
2022-10-08T02:09:49.168Z,22.25
2022-10-08T02:12:17.992Z,22.24
2022-10-08T02:14:51.625Z,22.24
2022-10-08T02:17:26.308Z,22.23
2022-10-08T02:19:57.947Z,22.24
2022-10-08T02:22:34.247Z,22.23
2022-10-08T02:25:14.600Z,22.24
2022-10-08T02:27:55.012Z,22.23
2022-10-08T02:30:25.629Z,22.23
2022-10-08T02:33:00.366Z,22.23
2022-10-08T02:35:36.804Z,22.24
2022-10-08T02:38:09.493Z,22.23
2022-10-08T02:40:40.741Z,22.24
2022-10-08T02:43:16.165Z,22.25
2022-10-08T02:45:51.818Z,22.24
2022-10-08T02:48:25.276Z,22.24
2022-10-08T02:50:56.929Z,22.24
2022-10-08T02:53:26.548Z,22.25
2022-10-08T02:56:06.006Z,22.23
2022-10-08T02:58:35.238Z,22.25
2022-10-08T03:01:11.441Z,22.24
2022-10-08T03:03:47.435Z,22.23
2022-10-08T03:06:18.213Z,22.25
2022-10-08T03:08:50.062Z,22.25
2022-10-08T03:11:18.691Z,22.25
2022-10-08T03:13:49.380Z,22.25
2022-10-08T03:16:22.381Z,22.24
2022-10-08T03:18:52.280Z,22.25
2022-10-08T03:21:21.671Z,22.25
2022-10-08T03:23:50.080Z,22.25
2022-10-08T03:26:18.905Z,22.26
2022-10-08T03:28:47.391Z,22.25
2022-10-08T03:31:15.933Z,22.25
2022-10-08T03:33:50.877Z,22.24
2022-10-08T03:36:19.773Z,22.25
2022-10-08T03:38:48.413Z,22.25
2022-10-08T03:41:17.481Z,22.24
2022-10-08T03:43:47.040Z,22.25
2022-10-08T03:46:17.299Z,22.24
2022-10-08T03:48:49.566Z,22.23
2022-10-08T03:51:19.248Z,22.24
2022-10-08T03:53:48.144Z,22.25
2022-10-08T03:56:18.733Z,22.24
2022-10-08T03:58:47.579Z,22.25
2022-10-08T04:01:17.629Z,22.26
2022-10-08T04:03:47.481Z,22.26
2022-10-08T04:06:16.074Z,22.25
2022-10-08T04:08:45.045Z,22.26
2022-10-08T04:11:15.382Z,22.25
2022-10-08T04:13:44.352Z,22.24
2022-10-08T04:16:14.815Z,22.25
2022-10-08T04:18:44.313Z,22.25
2022-10-08T04:21:15.682Z,22.25
2022-10-08T04:23:44.839Z,22.23
2022-10-08T04:26:15.140Z,22.25
2022-10-08T04:28:45.222Z,22.23
2022-10-08T04:31:16.683Z,22.26
2022-10-08T04:33:46.481Z,22.25
2022-10-08T04:36:18.205Z,22.25
2022-10-08T04:38:47.475Z,22.25
2022-10-08T04:41:17.746Z,22.25
2022-10-08T04:43:46.861Z,22.25
2022-10-08T04:46:17.684Z,22.25
2022-10-08T04:48:50.583Z,22.25
2022-10-08T04:51:23.151Z,22.24
2022-10-08T04:53:52.612Z,22.23
2022-10-08T04:56:23.837Z,22.26
2022-10-08T04:58:55.002Z,22.25
2022-10-08T05:01:24.487Z,22.25
2022-10-08T05:03:56.480Z,22.25
2022-10-08T05:06:28.077Z,22.25
2022-10-08T05:08:57.807Z,22.25
2022-10-08T05:11:28.115Z,22.26
2022-10-08T05:13:58.124Z,22.25
2022-10-08T05:16:27.501Z,22.24
2022-10-08T05:18:56.759Z,22.24
2022-10-08T05:21:29.064Z,22.25
2022-10-08T05:23:58.877Z,22.24
2022-10-08T05:26:56.098Z,22.24
2022-10-08T05:29:18.208Z,22.24
2022-10-08T05:31:46.704Z,22.24
2022-10-08T05:34:15.998Z,22.24
2022-10-08T05:36:46.294Z,22.26
2022-10-08T05:39:16.365Z,22.24
2022-10-08T05:41:45.003Z,22.25
2022-10-08T05:44:13.619Z,22.25
2022-10-08T05:46:42.110Z,22.24
2022-10-08T05:49:18.806Z,22.25
2022-10-08T05:51:48.619Z,22.25
2022-10-08T05:54:17.794Z,22.24
2022-10-08T05:56:46.289Z,22.24
2022-10-08T05:59:18.429Z,22.24
2022-10-08T06:01:47.158Z,22.24
2022-10-08T06:04:15.842Z,22.24
2022-10-08T06:06:44.860Z,22.24
2022-10-08T06:09:16.725Z,22.24
2022-10-08T06:11:45.498Z,22.24
2022-10-08T06:14:16.731Z,22.24
2022-10-08T06:16:45.181Z,22.24
2022-10-08T06:19:13.971Z,22.24
2022-10-08T06:21:42.433Z,22.25
2022-10-08T06:24:13.181Z,22.24
2022-10-08T06:26:44.390Z,22.24
2022-10-08T06:29:15.646Z,22.25
2022-10-08T06:31:45.016Z,22.24
2022-10-08T06:34:13.499Z,22.25
2022-10-08T06:36:42.142Z,22.25
2022-10-08T06:39:13.841Z,22.24
2022-10-08T06:41:43.780Z,22.24
2022-10-08T06:44:14.653Z,22.24
2022-10-08T06:46:43.293Z,22.24
2022-10-08T06:49:12.426Z,22.24
2022-10-08T06:51:40.902Z,22.24
2022-10-08T06:54:09.365Z,22.23
2022-10-08T06:56:38.743Z,22.22
2022-10-08T06:59:08.911Z,22.21
2022-10-08T07:01:37.707Z,22.20
2022-10-08T07:04:07.288Z,22.20
2022-10-08T07:06:36.397Z,22.19
2022-10-08T07:09:06.753Z,22.20
2022-10-08T07:11:35.244Z,22.21
2022-10-08T07:14:03.910Z,22.21
2022-10-08T07:16:33.802Z,22.21
2022-10-08T07:19:02.307Z,22.20
2022-10-08T07:21:31.342Z,22.21
2022-10-08T07:24:00.542Z,22.22
2022-10-08T07:26:32.311Z,22.22
2022-10-08T07:29:03.258Z,22.23
2022-10-08T07:31:35.574Z,22.23
2022-10-08T07:34:06.473Z,22.22
2022-10-08T07:36:35.755Z,22.22
2022-10-08T07:39:07.514Z,22.22
2022-10-08T07:41:36.548Z,22.24
2022-10-08T07:44:06.507Z,22.23
2022-10-08T07:46:38.698Z,22.23
2022-10-08T07:49:07.094Z,22.23
2022-10-08T07:51:36.178Z,22.24
2022-10-08T07:54:07.065Z,22.24
2022-10-08T07:56:36.844Z,22.24
2022-10-08T07:59:07.023Z,22.21
2022-10-08T08:01:36.884Z,22.24
2022-10-08T08:04:07.109Z,22.24
2022-10-08T08:06:40.647Z,22.24
2022-10-08T08:09:10.019Z,22.23
2022-10-08T08:11:39.922Z,22.24
2022-10-08T08:14:08.476Z,22.22
2022-10-08T08:16:38.894Z,22.23
2022-10-08T08:19:08.216Z,22.24
2022-10-08T08:21:38.547Z,22.23
2022-10-08T08:24:09.090Z,22.23
2022-10-08T08:26:40.915Z,22.23
2022-10-08T08:29:12.030Z,22.23
2022-10-08T08:31:43.682Z,22.23
2022-10-08T08:34:14.927Z,22.24
2022-10-08T08:36:45.617Z,22.23
2022-10-08T08:39:17.194Z,22.25
2022-10-08T08:41:55.668Z,22.24
2022-10-08T08:44:26.276Z,22.24
2022-10-08T08:47:01.017Z,22.25
2022-10-08T08:49:34.788Z,22.25
2022-10-08T08:52:05.779Z,22.26
2022-10-08T08:54:34.328Z,22.25
2022-10-08T08:57:16.260Z,22.25
2022-10-08T08:59:48.187Z,22.25
2022-10-08T09:02:24.165Z,22.26
2022-10-08T09:04:56.375Z,22.26
2022-10-08T09:07:28.714Z,22.27
2022-10-08T09:10:00.618Z,22.26
2022-10-08T09:12:37.429Z,22.25
2022-10-08T09:15:17.801Z,22.26
2022-10-08T09:17:51.892Z,22.26
2022-10-08T09:20:23.456Z,22.26
2022-10-08T09:22:53.958Z,22.25
2022-10-08T09:25:24.064Z,22.26
2022-10-08T09:27:54.805Z,22.26
2022-10-08T09:30:33.087Z,22.25
2022-10-08T09:33:06.301Z,22.26
2022-10-08T09:35:41.043Z,22.26
2022-10-08T09:38:21.057Z,22.27
2022-10-08T09:41:01.974Z,22.26
2022-10-08T09:43:31.869Z,22.27
2022-10-08T09:46:02.833Z,22.27
2022-10-08T09:48:32.769Z,22.26
2022-10-08T09:51:03.914Z,22.27
2022-10-08T09:53:42.130Z,22.26
2022-10-08T09:56:11.796Z,22.26
2022-10-08T09:58:50.291Z,22.26
2022-10-08T10:01:19.347Z,22.26
2022-10-08T10:03:55.110Z,22.26
2022-10-08T10:06:33.103Z,22.27
2022-10-08T10:09:07.300Z,22.27
2022-10-08T10:11:41.728Z,22.26
2022-10-08T10:14:21.481Z,22.27
2022-10-08T10:16:57.202Z,22.27
2022-10-08T10:19:31.205Z,22.27
2022-10-08T10:22:04.472Z,22.27
2022-10-08T10:24:48.161Z,22.27
2022-10-08T10:27:25.333Z,22.27
2022-10-08T10:30:04.508Z,22.27
2022-10-08T10:32:37.946Z,22.27
2022-10-08T10:35:16.470Z,22.28
2022-10-08T10:37:50.661Z,22.27
2022-10-08T10:40:32.727Z,22.27
2022-10-08T10:43:15.511Z,22.29
2022-10-08T10:45:49.370Z,22.27
2022-10-08T10:48:17.975Z,22.29
2022-10-08T10:51:05.076Z,22.28
2022-10-08T10:53:43.236Z,22.29
2022-10-08T10:56:17.047Z,22.29
2022-10-08T10:59:08.501Z,22.25
2022-10-08T11:01:46.429Z,22.26
2022-10-08T11:04:25.444Z,22.24
2022-10-08T11:07:03.536Z,22.23
2022-10-08T11:09:45.371Z,22.24
2022-10-08T11:12:26.060Z,22.24
2022-10-08T11:15:06.903Z,22.25
2022-10-08T11:17:50.680Z,22.26
2022-10-08T11:20:39.607Z,22.25
2022-10-08T11:23:21.393Z,22.25
2022-10-08T11:26:17.827Z,22.26
2022-10-08T11:28:52.877Z,22.25
2022-10-08T11:31:33.385Z,22.25
2022-10-08T11:34:04.350Z,22.25
2022-10-08T11:36:39.654Z,22.26
2022-10-08T11:39:17.731Z,22.25
2022-10-08T11:41:54.120Z,22.25
2022-10-08T11:44:22.780Z,22.26
2022-10-08T11:46:51.226Z,22.27
2022-10-08T11:49:48.622Z,22.27
2022-10-08T11:52:17.385Z,22.27
2022-10-08T11:54:55.425Z,22.26
2022-10-08T11:57:49.324Z,22.27
2022-10-08T12:00:32.702Z,22.26
2022-10-08T12:03:02.105Z,22.26
2022-10-08T12:05:47.979Z,22.24
2022-10-08T12:08:54.259Z,22.27
2022-10-08T12:11:49.087Z,22.26
2022-10-08T12:14:31.424Z,22.24
2022-10-08T12:17:09.474Z,22.27
2022-10-08T12:20:20.922Z,22.27
2022-10-08T12:23:07.021Z,22.27
2022-10-08T12:25:44.091Z,22.27
2022-10-08T12:28:47.588Z,22.28
2022-10-08T12:31:28.254Z,22.28
2022-10-08T12:34:14.724Z,22.27
2022-10-08T12:36:51.735Z,22.27
2022-10-08T12:39:34.369Z,22.28
2022-10-08T12:42:14.564Z,22.28
2022-10-08T12:45:02.723Z,22.27
2022-10-08T12:47:42.719Z,22.28
2022-10-08T12:50:31.391Z,22.26
2022-10-08T12:53:00.914Z,22.27
2022-10-08T12:55:37.722Z,22.27
2022-10-08T12:58:06.866Z,22.27
2022-10-08T13:00:37.188Z,22.27
2022-10-08T13:03:07.387Z,22.26
2022-10-08T13:05:39.617Z,22.26
2022-10-08T13:08:29.827Z,22.27
2022-10-08T13:11:00.152Z,22.27
2022-10-08T13:13:34.414Z,22.26
2022-10-08T13:16:06.385Z,22.27
2022-10-08T13:18:36.699Z,22.26
2022-10-08T13:21:08.801Z,22.27
2022-10-08T13:23:42.831Z,22.26
2022-10-08T13:26:25.976Z,22.27
2022-10-08T13:29:18.975Z,22.29
2022-10-08T13:31:54.726Z,22.27
2022-10-08T13:34:24.136Z,22.27
2022-10-08T13:36:56.461Z,22.26
2022-10-08T13:39:28.697Z,22.27
2022-10-08T13:41:59.398Z,22.26
2022-10-08T13:44:28.945Z,22.27
2022-10-08T13:47:03.535Z,22.27
2022-10-08T13:49:34.150Z,22.26
2022-10-08T13:52:02.986Z,22.27
2022-10-08T13:54:33.098Z,22.25
2022-10-08T13:57:01.688Z,22.25
2022-10-08T13:59:30.980Z,22.26
2022-10-08T14:02:00.971Z,22.26
2022-10-08T14:04:29.535Z,22.26
2022-10-08T14:06:59.675Z,22.26
2022-10-08T14:09:30.206Z,22.25
2022-10-08T14:12:04.878Z,22.26
2022-10-08T14:14:33.284Z,22.26
2022-10-08T14:17:03.032Z,22.26
2022-10-08T14:19:31.597Z,22.26
2022-10-08T14:22:00.509Z,22.26
2022-10-08T14:24:28.912Z,22.26
2022-10-08T14:26:57.365Z,22.25
2022-10-08T14:29:25.732Z,22.25
2022-10-08T14:31:54.244Z,22.26
2022-10-08T14:34:24.055Z,22.26
2022-10-08T14:36:55.349Z,22.27
2022-10-08T14:39:23.783Z,22.27
2022-10-08T14:41:52.270Z,22.26
2022-10-08T14:44:22.440Z,22.26
2022-10-08T14:46:52.842Z,22.26
2022-10-08T14:49:22.162Z,22.28
2022-10-08T14:51:52.048Z,22.26
2022-10-08T14:54:20.889Z,22.28
2022-10-08T14:56:49.333Z,22.29
2022-10-08T14:59:18.346Z,22.28
2022-10-08T15:01:46.955Z,22.28
2022-10-08T15:04:16.258Z,22.27
2022-10-08T15:06:45.135Z,22.27
2022-10-08T15:09:16.638Z,22.29
2022-10-08T15:11:45.305Z,22.27
2022-10-08T15:14:14.320Z,22.27
2022-10-08T15:16:43.474Z,22.28
2022-10-08T15:19:12.302Z,22.28
2022-10-08T15:21:40.926Z,22.29
2022-10-08T15:24:09.829Z,22.29
2022-10-08T15:26:39.974Z,22.28
2022-10-08T15:29:08.657Z,22.29
2022-10-08T15:31:37.672Z,22.28
2022-10-08T15:34:06.183Z,22.28
2022-10-08T15:36:37.609Z,22.30
2022-10-08T15:39:08.701Z,22.27
2022-10-08T15:41:38.533Z,22.28
2022-10-08T15:44:11.220Z,22.29
2022-10-08T15:46:39.629Z,22.28
2022-10-08T15:49:08.478Z,22.29
2022-10-08T15:51:36.917Z,22.28
2022-10-08T15:54:05.876Z,22.28
2022-10-08T15:56:35.163Z,22.28
2022-10-08T15:59:04.517Z,22.28
2022-10-08T16:01:34.419Z,22.28
2022-10-08T16:04:02.913Z,22.28
2022-10-08T16:06:34.578Z,22.29
2022-10-08T16:09:04.859Z,22.29
2022-10-08T16:11:35.316Z,22.28
2022-10-08T16:14:08.316Z,22.28
2022-10-08T16:16:38.281Z,22.29
2022-10-08T16:19:10.525Z,22.27
2022-10-08T16:21:39.854Z,22.26
2022-10-08T16:24:08.487Z,22.25
2022-10-08T16:26:37.023Z,22.24
2022-10-08T16:29:07.809Z,22.22
2022-10-08T16:31:39.138Z,22.19
2022-10-08T16:34:09.808Z,22.16
2022-10-08T16:36:39.415Z,22.15
2022-10-08T16:39:08.617Z,22.13
2022-10-08T16:41:38.251Z,22.08
2022-10-08T16:44:11.964Z,22.05
2022-10-08T16:46:44.446Z,22.02
2022-10-08T16:49:22.692Z,22.01
2022-10-08T16:51:53.543Z,22.01
2022-10-08T16:54:22.025Z,22.00
2022-10-08T16:56:50.816Z,22.02
2022-10-08T16:59:21.126Z,22.02
2022-10-08T17:01:54.158Z,22.04
2022-10-08T17:04:24.497Z,22.09
2022-10-08T17:06:52.985Z,22.14
2022-10-08T17:09:21.825Z,22.18
2022-10-08T17:11:50.364Z,22.21
2022-10-08T17:14:18.804Z,22.22
2022-10-08T17:16:47.338Z,22.23
2022-10-08T17:19:17.356Z,22.24
2022-10-08T17:21:45.801Z,22.24
2022-10-08T17:24:14.203Z,22.25
2022-10-08T17:26:42.941Z,22.23
2022-10-08T17:29:13.025Z,22.22
2022-10-08T17:31:42.150Z,22.23
2022-10-08T17:34:11.771Z,22.23
2022-10-08T17:36:44.058Z,22.23
2022-10-08T17:39:14.589Z,22.24
2022-10-08T17:41:43.764Z,22.23
2022-10-08T17:44:12.529Z,22.25
2022-10-08T17:46:45.316Z,22.24
2022-10-08T17:49:14.386Z,22.24
2022-10-08T17:51:44.782Z,22.24
2022-10-08T17:54:14.944Z,22.24
2022-10-08T17:56:43.629Z,22.24
2022-10-08T17:59:15.145Z,22.24
2022-10-08T18:01:45.317Z,22.25
2022-10-08T18:04:16.467Z,22.25
2022-10-08T18:06:47.835Z,22.26
2022-10-08T18:09:19.299Z,22.25
2022-10-08T18:11:50.844Z,22.25
2022-10-08T18:14:20.325Z,22.25
2022-10-08T18:16:49.076Z,22.25
2022-10-08T18:19:18.924Z,22.25
2022-10-08T18:21:48.781Z,22.24
2022-10-08T18:24:18.355Z,22.25
2022-10-08T18:26:46.934Z,22.24
2022-10-08T18:29:15.639Z,22.23
2022-10-08T18:31:46.459Z,22.23
2022-10-08T18:34:16.753Z,22.23
2022-10-08T18:36:45.956Z,22.24
2022-10-08T18:39:17.443Z,22.23
2022-10-08T18:41:47.761Z,22.29
2022-10-08T18:44:18.517Z,22.33
2022-10-08T18:46:47.263Z,22.34
2022-10-08T18:49:18.079Z,22.31
2022-10-08T18:51:47.243Z,22.30
2022-10-08T18:54:17.233Z,22.29
2022-10-08T18:56:46.088Z,22.27
2022-10-08T18:59:17.197Z,22.27
2022-10-08T19:01:47.375Z,22.25
2022-10-08T19:04:17.699Z,22.24
2022-10-08T19:06:49.123Z,22.24
2022-10-08T19:09:18.921Z,22.24
2022-10-08T19:11:50.962Z,22.23
2022-10-08T19:14:22.340Z,22.23
2022-10-08T19:16:51.070Z,22.23
2022-10-08T19:19:21.312Z,22.22
2022-10-08T19:21:51.070Z,22.23
2022-10-08T19:24:23.344Z,22.23
2022-10-08T19:26:52.516Z,22.21
2022-10-08T19:29:23.163Z,22.22
2022-10-08T19:31:51.924Z,22.21
2022-10-08T19:34:23.378Z,22.22
2022-10-08T19:36:52.287Z,22.21
2022-10-08T19:39:23.920Z,22.20
2022-10-08T19:41:52.417Z,22.22
2022-10-08T19:44:21.339Z,22.21
2022-10-08T19:46:50.408Z,22.20
2022-10-08T19:49:19.383Z,22.22
2022-10-08T19:51:47.980Z,22.21
2022-10-08T19:54:17.134Z,22.21
2022-10-08T19:56:47.029Z,22.21
2022-10-08T19:59:16.270Z,22.22
2022-10-08T20:01:45.167Z,22.22
2022-10-08T20:04:14.010Z,22.22
2022-10-08T20:06:44.770Z,22.22
2022-10-08T20:09:14.509Z,22.21
2022-10-08T20:11:44.456Z,22.21
2022-10-08T20:14:15.242Z,22.22
2022-10-08T20:16:44.048Z,22.21
2022-10-08T20:19:16.625Z,22.20
2022-10-08T20:21:45.292Z,22.19
2022-10-08T20:24:14.705Z,22.20
2022-10-08T20:26:44.293Z,22.20
2022-10-08T20:29:16.473Z,22.19
2022-10-08T20:31:48.778Z,22.20
2022-10-08T20:34:19.011Z,22.20
2022-10-08T20:36:48.253Z,22.20
2022-10-08T20:39:18.274Z,22.21
2022-10-08T20:41:46.978Z,22.21
2022-10-08T20:44:17.192Z,22.21
2022-10-08T20:46:46.055Z,22.20
2022-10-08T20:49:15.046Z,22.20
2022-10-08T20:51:44.643Z,22.21
2022-10-08T20:54:14.579Z,22.20
2022-10-08T20:56:44.117Z,22.21
2022-10-08T20:59:17.083Z,22.20
2022-10-08T21:01:46.203Z,22.21
2022-10-08T21:04:14.768Z,22.21
2022-10-08T21:06:45.367Z,22.21
2022-10-08T21:09:14.828Z,22.20
2022-10-08T21:11:45.760Z,22.21
2022-10-08T21:14:18.930Z,22.20
2022-10-08T21:16:47.435Z,22.20
2022-10-08T21:19:18.722Z,22.21
2022-10-08T21:21:47.337Z,22.21
2022-10-08T21:24:15.711Z,22.20
2022-10-08T21:26:44.372Z,22.21
2022-10-08T21:29:15.005Z,22.21
2022-10-08T21:31:44.941Z,22.20
2022-10-08T21:34:13.914Z,22.20
2022-10-08T21:36:44.568Z,22.19
2022-10-08T21:39:16.603Z,22.20
2022-10-08T21:41:45.602Z,22.20
2022-10-08T21:44:14.633Z,22.20
2022-10-08T21:46:44.986Z,22.20
2022-10-08T21:49:15.876Z,22.19
2022-10-08T21:51:45.073Z,22.19
2022-10-08T21:54:14.357Z,22.19
2022-10-08T21:56:43.772Z,22.18
2022-10-08T21:59:14.781Z,22.19
2022-10-08T22:01:46.779Z,22.20
2022-10-08T22:04:17.273Z,22.19
2022-10-08T22:06:48.124Z,22.19
2022-10-08T22:09:18.640Z,22.19
2022-10-08T22:11:47.433Z,22.18
2022-10-08T22:14:16.810Z,22.18
2022-10-08T22:16:46.806Z,22.18
2022-10-08T22:19:16.352Z,22.17
2022-10-08T22:21:44.890Z,22.18
2022-10-08T22:24:13.953Z,22.18
2022-10-08T22:26:44.532Z,22.18
2022-10-08T22:29:13.469Z,22.19
2022-10-08T22:31:42.463Z,22.18
2022-10-08T22:34:12.888Z,22.17
2022-10-08T22:36:43.768Z,22.18
2022-10-08T22:39:12.211Z,22.18
2022-10-08T22:41:40.675Z,22.17
2022-10-08T22:44:09.104Z,22.17
2022-10-08T22:46:39.169Z,22.17
2022-10-08T22:49:09.836Z,22.17
2022-10-08T22:51:40.661Z,22.16
2022-10-08T22:54:09.956Z,22.16
2022-10-08T22:56:38.444Z,22.17
2022-10-08T22:59:06.831Z,22.17
2022-10-08T23:01:35.308Z,22.16
2022-10-08T23:04:03.753Z,22.16
2022-10-08T23:06:34.453Z,22.16
2022-10-08T23:09:06.561Z,22.16
2022-10-08T23:11:35.727Z,22.16
2022-10-08T23:14:05.123Z,22.16
2022-10-08T23:16:35.299Z,22.15
2022-10-08T23:19:07.035Z,22.15
2022-10-08T23:21:36.618Z,22.15
2022-10-08T23:24:06.905Z,22.17
2022-10-08T23:26:36.040Z,22.15
2022-10-08T23:29:05.105Z,22.15
2022-10-08T23:31:35.696Z,22.14
2022-10-08T23:34:05.878Z,22.14
2022-10-08T23:36:37.629Z,22.15
2022-10-08T23:39:08.984Z,22.14
2022-10-08T23:41:37.948Z,22.13
2022-10-08T23:44:06.479Z,22.15
2022-10-08T23:46:34.910Z,22.14
2022-10-08T23:49:03.395Z,22.14
2022-10-08T23:51:32.510Z,22.13
2022-10-08T23:54:02.015Z,22.12
2022-10-08T23:56:32.096Z,22.13
2022-10-08T23:59:00.533Z,22.14
